sensor_id;sensor_type;location;lat;lon;timestamp;temperature;humidity
18043;DHT22;9146;48.074;11.968;2023-04-24T00:00:15;9.10;99.90
18043;DHT22;9146;48.074;11.968;2023-04-24T00:02:45;9.10;99.90
18043;DHT22;9146;48.074;11.968;2023-04-24T00:05:13;9.00;99.90
18043;DHT22;9146;48.074;11.968;2023-04-24T00:07:40;9.00;99.90
18043;DHT22;9146;48.074;11.968;2023-04-24T00:10:08;8.90;99.90
18043;DHT22;9146;48.074;11.968;2023-04-24T00:12:36;8.90;99.90
18043;DHT22;9146;48.074;11.968;2023-04-24T00:15:03;8.90;99.90
18043;DHT22;9146;48.074;11.968;2023-04-24T00:17:31;8.90;99.90
18043;DHT22;9146;48.074;11.968;2023-04-24T00:19:59;8.80;99.90
18043;DHT22;9146;48.074;11.968;2023-04-24T00:22:28;8.80;99.90
18043;DHT22;9146;48.074;11.968;2023-04-24T00:24:55;8.80;99.90
18043;DHT22;9146;48.074;11.968;2023-04-24T00:27:22;8.70;99.90
18043;DHT22;9146;48.074;11.968;2023-04-24T00:29:49;8.80;99.90
18043;DHT22;9146;48.074;11.968;2023-04-24T00:32:16;8.80;99.90
18043;DHT22;9146;48.074;11.968;2023-04-24T00:34:43;8.70;99.90
18043;DHT22;9146;48.074;11.968;2023-04-24T00:37:12;8.70;99.90
18043;DHT22;9146;48.074;11.968;2023-04-24T00:39:38;8.70;99.90
18043;DHT22;9146;48.074;11.968;2023-04-24T00:42:05;8.70;99.90
18043;DHT22;9146;48.074;11.968;2023-04-24T00:44:33;8.60;99.90
18043;DHT22;9146;48.074;11.968;2023-04-24T00:47:01;8.70;99.90
18043;DHT22;9146;48.074;11.968;2023-04-24T00:49:28;8.70;99.90
18043;DHT22;9146;48.074;11.968;2023-04-24T00:51:55;8.70;99.90
18043;DHT22;9146;48.074;11.968;2023-04-24T00:54:23;8.70;99.90
18043;DHT22;9146;48.074;11.968;2023-04-24T00:56:51;8.70;99.90
18043;DHT22;9146;48.074;11.968;2023-04-24T00:59:18;8.70;99.90
18043;DHT22;9146;48.074;11.968;2023-04-24T01:01:46;8.70;99.90
18043;DHT22;9146;48.074;11.968;2023-04-24T01:04:13;8.70;99.90
18043;DHT22;9146;48.074;11.968;2023-04-24T01:06:41;8.70;99.90
18043;DHT22;9146;48.074;11.968;2023-04-24T01:09:10;8.60;99.90
18043;DHT22;9146;48.074;11.968;2023-04-24T01:11:41;8.60;99.90
18043;DHT22;9146;48.074;11.968;2023-04-24T01:14:09;8.60;99.90
18043;DHT22;9146;48.074;11.968;2023-04-24T01:16:36;8.60;99.90
18043;DHT22;9146;48.074;11.968;2023-04-24T01:19:03;8.60;99.90
18043;DHT22;9146;48.074;11.968;2023-04-24T01:21:31;8.60;99.90
18043;DHT22;9146;48.074;11.968;2023-04-24T01:24:03;8.60;99.90
18043;DHT22;9146;48.074;11.968;2023-04-24T01:26:30;8.50;99.90
18043;DHT22;9146;48.074;11.968;2023-04-24T01:28:57;8.50;99.90
18043;DHT22;9146;48.074;11.968;2023-04-24T01:31:24;8.40;99.90
18043;DHT22;9146;48.074;11.968;2023-04-24T01:33:51;8.40;99.90
18043;DHT22;9146;48.074;11.968;2023-04-24T01:36:18;8.30;99.90
18043;DHT22;9146;48.074;11.968;2023-04-24T01:38:45;8.30;99.90
18043;DHT22;9146;48.074;11.968;2023-04-24T01:41:15;8.30;99.90
18043;DHT22;9146;48.074;11.968;2023-04-24T01:43:42;8.20;99.90
18043;DHT22;9146;48.074;11.968;2023-04-24T01:46:09;8.20;99.90
18043;DHT22;9146;48.074;11.968;2023-04-24T01:48:36;8.20;99.90
18043;DHT22;9146;48.074;11.968;2023-04-24T01:51:03;8.20;99.90
18043;DHT22;9146;48.074;11.968;2023-04-24T01:53:29;8.20;99.90
18043;DHT22;9146;48.074;11.968;2023-04-24T01:55:57;8.20;99.90
18043;DHT22;9146;48.074;11.968;2023-04-24T01:58:26;8.10;99.90
18043;DHT22;9146;48.074;11.968;2023-04-24T02:00:56;8.10;99.90
18043;DHT22;9146;48.074;11.968;2023-04-24T02:03:23;8.10;99.90
18043;DHT22;9146;48.074;11.968;2023-04-24T02:05:50;8.10;99.90
18043;DHT22;9146;48.074;11.968;2023-04-24T02:08:16;8.00;99.90
18043;DHT22;9146;48.074;11.968;2023-04-24T02:10:43;8.00;99.90
18043;DHT22;9146;48.074;11.968;2023-04-24T02:13:10;8.00;99.90
18043;DHT22;9146;48.074;11.968;2023-04-24T02:15:39;7.90;99.90
18043;DHT22;9146;48.074;11.968;2023-04-24T02:18:06;7.90;99.90
18043;DHT22;9146;48.074;11.968;2023-04-24T02:20:32;7.90;99.90
18043;DHT22;9146;48.074;11.968;2023-04-24T02:23:01;7.90;99.90
18043;DHT22;9146;48.074;11.968;2023-04-24T02:25:28;7.80;99.90
18043;DHT22;9146;48.074;11.968;2023-04-24T02:27:55;7.80;99.90
18043;DHT22;9146;48.074;11.968;2023-04-24T02:30:22;7.80;99.90
18043;DHT22;9146;48.074;11.968;2023-04-24T02:32:50;7.80;99.90
18043;DHT22;9146;48.074;11.968;2023-04-24T02:35:17;7.80;99.90
18043;DHT22;9146;48.074;11.968;2023-04-24T02:37:44;7.80;99.90
18043;DHT22;9146;48.074;11.968;2023-04-24T02:40:11;7.70;99.90
18043;DHT22;9146;48.074;11.968;2023-04-24T02:42:38;7.70;99.90
18043;DHT22;9146;48.074;11.968;2023-04-24T02:45:05;7.70;99.90
18043;DHT22;9146;48.074;11.968;2023-04-24T02:47:32;7.70;99.90
18043;DHT22;9146;48.074;11.968;2023-04-24T02:50:01;7.70;99.90
18043;DHT22;9146;48.074;11.968;2023-04-24T02:52:28;7.70;99.90
18043;DHT22;9146;48.074;11.968;2023-04-24T02:54:55;7.70;99.90
18043;DHT22;9146;48.074;11.968;2023-04-24T02:57:22;7.70;99.90
18043;DHT22;9146;48.074;11.968;2023-04-24T02:59:49;7.70;99.90
18043;DHT22;9146;48.074;11.968;2023-04-24T03:02:15;7.70;99.90
18043;DHT22;9146;48.074;11.968;2023-04-24T03:04:42;7.70;99.90
18043;DHT22;9146;48.074;11.968;2023-04-24T03:07:11;7.70;99.90
18043;DHT22;9146;48.074;11.968;2023-04-24T03:09:38;7.70;99.90
18043;DHT22;9146;48.074;11.968;2023-04-24T03:12:05;7.70;99.90
18043;DHT22;9146;48.074;11.968;2023-04-24T03:14:32;7.70;99.90
18043;DHT22;9146;48.074;11.968;2023-04-24T03:16:59;7.70;99.90
18043;DHT22;9146;48.074;11.968;2023-04-24T03:19:26;7.70;99.90
18043;DHT22;9146;48.074;11.968;2023-04-24T03:21:52;7.70;99.90
18043;DHT22;9146;48.074;11.968;2023-04-24T03:24:21;7.70;99.90
18043;DHT22;9146;48.074;11.968;2023-04-24T03:26:48;7.70;99.90
18043;DHT22;9146;48.074;11.968;2023-04-24T03:29:14;7.70;99.90
18043;DHT22;9146;48.074;11.968;2023-04-24T03:31:41;7.70;99.90
18043;DHT22;9146;48.074;11.968;2023-04-24T03:34:08;7.70;99.90
18043;DHT22;9146;48.074;11.968;2023-04-24T03:36:35;7.70;99.90
18043;DHT22;9146;48.074;11.968;2023-04-24T03:39:02;7.70;99.90
18043;DHT22;9146;48.074;11.968;2023-04-24T03:41:30;7.70;99.90
18043;DHT22;9146;48.074;11.968;2023-04-24T03:43:57;7.70;99.90
18043;DHT22;9146;48.074;11.968;2023-04-24T03:46:24;7.70;99.90
18043;DHT22;9146;48.074;11.968;2023-04-24T03:48:51;7.70;99.90
18043;DHT22;9146;48.074;11.968;2023-04-24T03:51:18;7.70;99.90
18043;DHT22;9146;48.074;11.968;2023-04-24T03:53:45;7.70;99.90
18043;DHT22;9146;48.074;11.968;2023-04-24T03:56:12;7.60;99.90
18043;DHT22;9146;48.074;11.968;2023-04-24T03:58:40;7.60;99.90
18043;DHT22;9146;48.074;11.968;2023-04-24T04:01:07;7.60;99.90
18043;DHT22;9146;48.074;11.968;2023-04-24T04:03:34;7.60;99.90
18043;DHT22;9146;48.074;11.968;2023-04-24T04:06:01;7.60;99.90
18043;DHT22;9146;48.074;11.968;2023-04-24T04:08:28;7.60;99.90
18043;DHT22;9146;48.074;11.968;2023-04-24T04:10:55;7.60;99.90
18043;DHT22;9146;48.074;11.968;2023-04-24T04:13:22;7.60;99.90
18043;DHT22;9146;48.074;11.968;2023-04-24T04:15:51;7.60;99.90
18043;DHT22;9146;48.074;11.968;2023-04-24T04:18:18;7.60;99.90
18043;DHT22;9146;48.074;11.968;2023-04-24T04:20:44;7.70;99.90
18043;DHT22;9146;48.074;11.968;2023-04-24T04:23:11;7.70;99.90
18043;DHT22;9146;48.074;11.968;2023-04-24T04:25:38;7.70;99.90
18043;DHT22;9146;48.074;11.968;2023-04-24T04:28:05;7.70;99.90
18043;DHT22;9146;48.074;11.968;2023-04-24T04:30:32;7.70;99.90
18043;DHT22;9146;48.074;11.968;2023-04-24T04:33:00;7.70;99.90
18043;DHT22;9146;48.074;11.968;2023-04-24T04:35:28;7.70;99.90
18043;DHT22;9146;48.074;11.968;2023-04-24T04:37:55;7.80;99.90
18043;DHT22;9146;48.074;11.968;2023-04-24T04:40:24;7.80;99.90
18043;DHT22;9146;48.074;11.968;2023-04-24T04:42:52;7.80;99.90
18043;DHT22;9146;48.074;11.968;2023-04-24T04:45:19;7.80;99.90
18043;DHT22;9146;48.074;11.968;2023-04-24T04:47:46;7.80;99.90
18043;DHT22;9146;48.074;11.968;2023-04-24T04:50:15;7.80;99.90
18043;DHT22;9146;48.074;11.968;2023-04-24T04:52:44;7.80;99.90
18043;DHT22;9146;48.074;11.968;2023-04-24T04:55:11;7.80;99.90
18043;DHT22;9146;48.074;11.968;2023-04-24T04:57:40;7.80;99.90
18043;DHT22;9146;48.074;11.968;2023-04-24T05:00:08;7.80;99.90
18043;DHT22;9146;48.074;11.968;2023-04-24T05:02:37;7.90;99.90
18043;DHT22;9146;48.074;11.968;2023-04-24T05:05:04;7.90;99.90
18043;DHT22;9146;48.074;11.968;2023-04-24T05:07:33;7.90;99.90
18043;DHT22;9146;48.074;11.968;2023-04-24T05:10:00;7.90;99.90
18043;DHT22;9146;48.074;11.968;2023-04-24T05:12:27;8.00;99.90
18043;DHT22;9146;48.074;11.968;2023-04-24T05:14:54;8.00;99.90
18043;DHT22;9146;48.074;11.968;2023-04-24T05:17:21;8.10;99.90
18043;DHT22;9146;48.074;11.968;2023-04-24T05:19:48;8.10;99.90
18043;DHT22;9146;48.074;11.968;2023-04-24T05:22:15;8.10;99.90
18043;DHT22;9146;48.074;11.968;2023-04-24T05:24:47;8.10;99.90
18043;DHT22;9146;48.074;11.968;2023-04-24T05:27:14;8.10;99.90
18043;DHT22;9146;48.074;11.968;2023-04-24T05:29:42;8.10;99.90
18043;DHT22;9146;48.074;11.968;2023-04-24T05:32:09;8.10;99.90
18043;DHT22;9146;48.074;11.968;2023-04-24T05:34:36;8.10;99.90
18043;DHT22;9146;48.074;11.968;2023-04-24T05:37:03;8.10;99.90
18043;DHT22;9146;48.074;11.968;2023-04-24T05:39:33;8.10;99.90
18043;DHT22;9146;48.074;11.968;2023-04-24T05:42:02;8.20;99.90
18043;DHT22;9146;48.074;11.968;2023-04-24T05:44:30;8.20;99.90
18043;DHT22;9146;48.074;11.968;2023-04-24T05:46:56;8.20;99.90
18043;DHT22;9146;48.074;11.968;2023-04-24T05:49:23;8.20;99.90
18043;DHT22;9146;48.074;11.968;2023-04-24T05:51:50;8.30;99.90
18043;DHT22;9146;48.074;11.968;2023-04-24T05:54:17;8.30;99.90
18043;DHT22;9146;48.074;11.968;2023-04-24T05:56:44;8.30;99.90
18043;DHT22;9146;48.074;11.968;2023-04-24T05:59:13;8.40;99.90
18043;DHT22;9146;48.074;11.968;2023-04-24T06:01:40;8.40;99.90
18043;DHT22;9146;48.074;11.968;2023-04-24T06:04:07;8.40;99.90
18043;DHT22;9146;48.074;11.968;2023-04-24T06:06:35;8.50;99.90
18043;DHT22;9146;48.074;11.968;2023-04-24T06:09:02;8.60;99.90
18043;DHT22;9146;48.074;11.968;2023-04-24T06:11:29;8.80;99.90
18043;DHT22;9146;48.074;11.968;2023-04-24T06:13:57;8.90;99.90
18043;DHT22;9146;48.074;11.968;2023-04-24T06:16:26;9.00;99.90
18043;DHT22;9146;48.074;11.968;2023-04-24T06:18:53;9.20;99.90
18043;DHT22;9146;48.074;11.968;2023-04-24T06:21:20;9.30;99.90
18043;DHT22;9146;48.074;11.968;2023-04-24T06:23:47;9.40;99.90
18043;DHT22;9146;48.074;11.968;2023-04-24T06:26:15;9.50;99.90
18043;DHT22;9146;48.074;11.968;2023-04-24T06:28:42;9.50;99.90
18043;DHT22;9146;48.074;11.968;2023-04-24T06:31:09;9.60;99.90
18043;DHT22;9146;48.074;11.968;2023-04-24T06:33:37;9.70;99.90
18043;DHT22;9146;48.074;11.968;2023-04-24T06:36:04;9.70;99.90
18043;DHT22;9146;48.074;11.968;2023-04-24T06:38:31;9.70;99.90
18043;DHT22;9146;48.074;11.968;2023-04-24T06:40:59;9.70;99.90
18043;DHT22;9146;48.074;11.968;2023-04-24T06:43:26;9.60;99.90
18043;DHT22;9146;48.074;11.968;2023-04-24T06:45:53;9.60;99.90
18043;DHT22;9146;48.074;11.968;2023-04-24T06:48:20;9.50;99.90
18043;DHT22;9146;48.074;11.968;2023-04-24T06:50:48;9.50;99.90
18043;DHT22;9146;48.074;11.968;2023-04-24T06:53:15;9.40;99.90
18043;DHT22;9146;48.074;11.968;2023-04-24T06:55:42;9.40;99.90
18043;DHT22;9146;48.074;11.968;2023-04-24T06:58:10;9.50;99.90
18043;DHT22;9146;48.074;11.968;2023-04-24T07:00:38;9.50;99.90
18043;DHT22;9146;48.074;11.968;2023-04-24T07:03:04;9.50;99.90
18043;DHT22;9146;48.074;11.968;2023-04-24T07:05:31;9.50;99.90
18043;DHT22;9146;48.074;11.968;2023-04-24T07:08:02;9.60;99.90
18043;DHT22;9146;48.074;11.968;2023-04-24T07:10:32;9.60;99.90
18043;DHT22;9146;48.074;11.968;2023-04-24T07:13:01;9.60;99.90
18043;DHT22;9146;48.074;11.968;2023-04-24T07:15:27;9.60;99.90
18043;DHT22;9146;48.074;11.968;2023-04-24T07:17:55;9.60;99.90
18043;DHT22;9146;48.074;11.968;2023-04-24T07:20:22;9.60;99.90
18043;DHT22;9146;48.074;11.968;2023-04-24T07:22:48;9.60;99.90
18043;DHT22;9146;48.074;11.968;2023-04-24T07:25:19;9.60;99.90
18043;DHT22;9146;48.074;11.968;2023-04-24T07:27:46;9.60;99.90
18043;DHT22;9146;48.074;11.968;2023-04-24T07:30:14;9.70;99.90
18043;DHT22;9146;48.074;11.968;2023-04-24T07:32:41;9.80;99.90
18043;DHT22;9146;48.074;11.968;2023-04-24T07:35:09;9.90;99.90
18043;DHT22;9146;48.074;11.968;2023-04-24T07:37:36;10.00;99.90
18043;DHT22;9146;48.074;11.968;2023-04-24T07:40:03;10.10;99.90
18043;DHT22;9146;48.074;11.968;2023-04-24T07:42:32;10.30;99.90
18043;DHT22;9146;48.074;11.968;2023-04-24T07:45:00;10.50;99.90
18043;DHT22;9146;48.074;11.968;2023-04-24T07:47:27;10.60;99.90
18043;DHT22;9146;48.074;11.968;2023-04-24T07:49:54;10.90;99.90
18043;DHT22;9146;48.074;11.968;2023-04-24T07:52:20;11.10;99.90
18043;DHT22;9146;48.074;11.968;2023-04-24T07:54:47;11.30;99.90
18043;DHT22;9146;48.074;11.968;2023-04-24T07:57:15;11.30;99.90
18043;DHT22;9146;48.074;11.968;2023-04-24T07:59:43;11.40;99.90
18043;DHT22;9146;48.074;11.968;2023-04-24T08:02:10;11.40;99.90
18043;DHT22;9146;48.074;11.968;2023-04-24T08:04:37;11.40;99.90
18043;DHT22;9146;48.074;11.968;2023-04-24T08:07:04;11.30;99.90
18043;DHT22;9146;48.074;11.968;2023-04-24T08:09:31;11.30;99.90
18043;DHT22;9146;48.074;11.968;2023-04-24T08:11:58;11.40;99.90
18043;DHT22;9146;48.074;11.968;2023-04-24T08:14:25;11.60;99.90
18043;DHT22;9146;48.074;11.968;2023-04-24T08:16:54;11.70;99.90
18043;DHT22;9146;48.074;11.968;2023-04-24T08:19:21;11.80;99.90
18043;DHT22;9146;48.074;11.968;2023-04-24T08:21:48;11.70;99.90
18043;DHT22;9146;48.074;11.968;2023-04-24T08:24:15;11.70;99.90
18043;DHT22;9146;48.074;11.968;2023-04-24T08:26:42;11.60;99.90
18043;DHT22;9146;48.074;11.968;2023-04-24T08:29:09;11.70;99.90
18043;DHT22;9146;48.074;11.968;2023-04-24T08:31:36;11.70;99.90
18043;DHT22;9146;48.074;11.968;2023-04-24T08:34:04;11.60;99.90
18043;DHT22;9146;48.074;11.968;2023-04-24T08:36:31;11.60;99.90
18043;DHT22;9146;48.074;11.968;2023-04-24T08:38:59;11.50;99.90
18043;DHT22;9146;48.074;11.968;2023-04-24T08:41:27;11.40;99.90
18043;DHT22;9146;48.074;11.968;2023-04-24T08:43:55;11.20;99.90
18043;DHT22;9146;48.074;11.968;2023-04-24T08:46:24;11.10;99.90
18043;DHT22;9146;48.074;11.968;2023-04-24T08:48:52;11.10;99.90
18043;DHT22;9146;48.074;11.968;2023-04-24T08:51:20;11.10;99.90
18043;DHT22;9146;48.074;11.968;2023-04-24T08:53:48;11.30;99.90
18043;DHT22;9146;48.074;11.968;2023-04-24T08:56:16;11.40;99.90
18043;DHT22;9146;48.074;11.968;2023-04-24T08:58:45;11.40;99.90
18043;DHT22;9146;48.074;11.968;2023-04-24T09:01:12;11.40;99.90
18043;DHT22;9146;48.074;11.968;2023-04-24T09:03:41;11.50;99.90
18043;DHT22;9146;48.074;11.968;2023-04-24T09:06:10;11.50;99.90
18043;DHT22;9146;48.074;11.968;2023-04-24T09:08:39;11.50;99.90
18043;DHT22;9146;48.074;11.968;2023-04-24T09:11:08;11.50;99.90
18043;DHT22;9146;48.074;11.968;2023-04-24T09:13:35;11.40;99.90
18043;DHT22;9146;48.074;11.968;2023-04-24T09:16:03;11.30;99.90
18043;DHT22;9146;48.074;11.968;2023-04-24T09:18:30;11.10;99.90
18043;DHT22;9146;48.074;11.968;2023-04-24T09:20:59;10.80;99.90
18043;DHT22;9146;48.074;11.968;2023-04-24T09:23:27;10.60;99.90
18043;DHT22;9146;48.074;11.968;2023-04-24T09:25:57;10.50;99.90
18043;DHT22;9146;48.074;11.968;2023-04-24T09:28:30;10.40;99.90
18043;DHT22;9146;48.074;11.968;2023-04-24T09:31:08;10.50;99.90
18043;DHT22;9146;48.074;11.968;2023-04-24T09:33:36;10.70;99.90
18043;DHT22;9146;48.074;11.968;2023-04-24T09:36:03;11.00;99.90
18043;DHT22;9146;48.074;11.968;2023-04-24T09:38:32;11.30;99.90
18043;DHT22;9146;48.074;11.968;2023-04-24T09:41:01;11.60;99.90
18043;DHT22;9146;48.074;11.968;2023-04-24T09:43:29;11.70;99.90
18043;DHT22;9146;48.074;11.968;2023-04-24T09:45:57;11.60;99.90
18043;DHT22;9146;48.074;11.968;2023-04-24T09:48:31;11.40;99.90
18043;DHT22;9146;48.074;11.968;2023-04-24T09:50:59;11.30;99.90
18043;DHT22;9146;48.074;11.968;2023-04-24T09:53:27;11.40;99.90
18043;DHT22;9146;48.074;11.968;2023-04-24T09:55:54;11.40;99.90
18043;DHT22;9146;48.074;11.968;2023-04-24T09:58:26;11.50;99.90
18043;DHT22;9146;48.074;11.968;2023-04-24T10:00:56;11.80;99.90
18043;DHT22;9146;48.074;11.968;2023-04-24T10:03:26;12.20;99.90
18043;DHT22;9146;48.074;11.968;2023-04-24T10:05:53;12.50;99.90
18043;DHT22;9146;48.074;11.968;2023-04-24T10:08:21;12.70;99.90
18043;DHT22;9146;48.074;11.968;2023-04-24T10:10:48;12.90;99.90
18043;DHT22;9146;48.074;11.968;2023-04-24T10:13:15;13.10;99.90
18043;DHT22;9146;48.074;11.968;2023-04-24T10:15:44;13.00;99.90
18043;DHT22;9146;48.074;11.968;2023-04-24T10:18:11;13.10;99.90
18043;DHT22;9146;48.074;11.968;2023-04-24T10:20:41;13.20;99.90
18043;DHT22;9146;48.074;11.968;2023-04-24T10:23:08;13.30;99.90
18043;DHT22;9146;48.074;11.968;2023-04-24T10:25:35;13.20;99.90
18043;DHT22;9146;48.074;11.968;2023-04-24T10:28:04;13.30;99.90
18043;DHT22;9146;48.074;11.968;2023-04-24T10:30:33;13.40;99.90
18043;DHT22;9146;48.074;11.968;2023-04-24T10:33:04;13.60;99.90
18043;DHT22;9146;48.074;11.968;2023-04-24T10:35:31;13.70;99.90
18043;DHT22;9146;48.074;11.968;2023-04-24T10:38:02;13.80;99.90
18043;DHT22;9146;48.074;11.968;2023-04-24T10:40:33;13.80;99.90
18043;DHT22;9146;48.074;11.968;2023-04-24T10:43:03;14.00;99.90
18043;DHT22;9146;48.074;11.968;2023-04-24T10:45:32;14.10;99.90
18043;DHT22;9146;48.074;11.968;2023-04-24T10:48:00;14.20;99.90
18043;DHT22;9146;48.074;11.968;2023-04-24T10:50:41;14.20;99.90
18043;DHT22;9146;48.074;11.968;2023-04-24T10:53:13;14.20;99.90
18043;DHT22;9146;48.074;11.968;2023-04-24T10:55:43;14.20;99.90
18043;DHT22;9146;48.074;11.968;2023-04-24T10:58:11;14.30;99.90
18043;DHT22;9146;48.074;11.968;2023-04-24T11:00:39;14.50;99.90
18043;DHT22;9146;48.074;11.968;2023-04-24T11:03:09;14.60;99.90
18043;DHT22;9146;48.074;11.968;2023-04-24T11:05:55;14.50;99.90
18043;DHT22;9146;48.074;11.968;2023-04-24T11:08:25;14.50;99.90
18043;DHT22;9146;48.074;11.968;2023-04-24T11:10:58;14.50;99.90
18043;DHT22;9146;48.074;11.968;2023-04-24T11:13:26;14.40;99.90
18043;DHT22;9146;48.074;11.968;2023-04-24T11:16:13;14.30;99.90
18043;DHT22;9146;48.074;11.968;2023-04-24T11:18:42;14.10;99.90
18043;DHT22;9146;48.074;11.968;2023-04-24T11:21:13;13.90;99.90
18043;DHT22;9146;48.074;11.968;2023-04-24T11:23:43;13.70;99.90
18043;DHT22;9146;48.074;11.968;2023-04-24T11:26:12;13.40;99.90
18043;DHT22;9146;48.074;11.968;2023-04-24T11:28:45;12.80;99.90
18043;DHT22;9146;48.074;11.968;2023-04-24T11:31:35;11.70;99.90
18043;DHT22;9146;48.074;11.968;2023-04-24T11:34:10;10.70;99.90
18043;DHT22;9146;48.074;11.968;2023-04-24T11:36:39;10.00;99.90
18043;DHT22;9146;48.074;11.968;2023-04-24T11:39:06;9.80;99.90
18043;DHT22;9146;48.074;11.968;2023-04-24T11:41:33;9.60;99.90
18043;DHT22;9146;48.074;11.968;2023-04-24T11:44:01;9.60;99.90
18043;DHT22;9146;48.074;11.968;2023-04-24T11:46:29;9.60;99.90
18043;DHT22;9146;48.074;11.968;2023-04-24T11:48:57;9.80;99.90
18043;DHT22;9146;48.074;11.968;2023-04-24T11:51:26;9.90;99.90
18043;DHT22;9146;48.074;11.968;2023-04-24T11:53:55;10.10;99.90
18043;DHT22;9146;48.074;11.968;2023-04-24T11:56:23;10.40;99.90
18043;DHT22;9146;48.074;11.968;2023-04-24T11:58:52;10.70;99.90
18043;DHT22;9146;48.074;11.968;2023-04-24T12:01:20;11.00;99.90
18043;DHT22;9146;48.074;11.968;2023-04-24T12:03:50;11.30;99.90
18043;DHT22;9146;48.074;11.968;2023-04-24T12:06:17;11.50;99.90
18043;DHT22;9146;48.074;11.968;2023-04-24T12:08:46;11.80;99.90
18043;DHT22;9146;48.074;11.968;2023-04-24T12:11:16;11.80;99.90
18043;DHT22;9146;48.074;11.968;2023-04-24T12:13:46;11.90;99.90
18043;DHT22;9146;48.074;11.968;2023-04-24T12:16:13;12.00;99.90
18043;DHT22;9146;48.074;11.968;2023-04-24T12:18:44;12.00;99.90
18043;DHT22;9146;48.074;11.968;2023-04-24T12:21:18;12.00;99.90
18043;DHT22;9146;48.074;11.968;2023-04-24T12:23:46;12.10;99.90
18043;DHT22;9146;48.074;11.968;2023-04-24T12:26:17;12.40;99.90
18043;DHT22;9146;48.074;11.968;2023-04-24T12:28:47;12.40;99.90
18043;DHT22;9146;48.074;11.968;2023-04-24T12:31:15;12.40;99.90
18043;DHT22;9146;48.074;11.968;2023-04-24T12:33:42;12.20;99.90
18043;DHT22;9146;48.074;11.968;2023-04-24T12:36:10;12.00;99.90
18043;DHT22;9146;48.074;11.968;2023-04-24T12:38:39;11.70;99.90
18043;DHT22;9146;48.074;11.968;2023-04-24T12:41:11;11.40;99.90
18043;DHT22;9146;48.074;11.968;2023-04-24T12:43:50;10.80;99.90
18043;DHT22;9146;48.074;11.968;2023-04-24T12:46:18;10.10;99.90
18043;DHT22;9146;48.074;11.968;2023-04-24T12:48:45;9.70;99.90
18043;DHT22;9146;48.074;11.968;2023-04-24T12:51:12;9.60;99.90
18043;DHT22;9146;48.074;11.968;2023-04-24T12:53:39;9.60;99.90
18043;DHT22;9146;48.074;11.968;2023-04-24T12:56:05;9.80;99.90
18043;DHT22;9146;48.074;11.968;2023-04-24T12:58:33;9.90;99.90
18043;DHT22;9146;48.074;11.968;2023-04-24T13:01:01;10.10;99.90
18043;DHT22;9146;48.074;11.968;2023-04-24T13:03:28;10.20;99.90
18043;DHT22;9146;48.074;11.968;2023-04-24T13:05:55;10.40;99.90
18043;DHT22;9146;48.074;11.968;2023-04-24T13:08:21;10.40;99.90
18043;DHT22;9146;48.074;11.968;2023-04-24T13:10:49;10.60;99.90
18043;DHT22;9146;48.074;11.968;2023-04-24T13:13:17;10.70;99.90
18043;DHT22;9146;48.074;11.968;2023-04-24T13:15:44;10.80;99.90
18043;DHT22;9146;48.074;11.968;2023-04-24T13:18:12;10.80;99.90
18043;DHT22;9146;48.074;11.968;2023-04-24T13:20:39;10.70;99.90
18043;DHT22;9146;48.074;11.968;2023-04-24T13:23:07;10.50;99.90
18043;DHT22;9146;48.074;11.968;2023-04-24T13:25:35;10.30;99.90
18043;DHT22;9146;48.074;11.968;2023-04-24T13:28:02;10.30;99.90
18043;DHT22;9146;48.074;11.968;2023-04-24T13:30:29;10.30;99.90
18043;DHT22;9146;48.074;11.968;2023-04-24T13:32:56;10.60;99.90
18043;DHT22;9146;48.074;11.968;2023-04-24T13:35:24;10.80;99.90
18043;DHT22;9146;48.074;11.968;2023-04-24T13:37:51;10.90;99.90
18043;DHT22;9146;48.074;11.968;2023-04-24T13:40:18;11.00;99.90
18043;DHT22;9146;48.074;11.968;2023-04-24T13:42:45;11.00;99.90
18043;DHT22;9146;48.074;11.968;2023-04-24T13:45:12;11.20;99.90
18043;DHT22;9146;48.074;11.968;2023-04-24T13:47:39;11.30;99.90
18043;DHT22;9146;48.074;11.968;2023-04-24T13:50:08;11.20;99.90
18043;DHT22;9146;48.074;11.968;2023-04-24T13:52:36;11.10;99.90
18043;DHT22;9146;48.074;11.968;2023-04-24T13:55:04;11.00;99.90
18043;DHT22;9146;48.074;11.968;2023-04-24T13:57:31;10.90;99.90
18043;DHT22;9146;48.074;11.968;2023-04-24T13:59:58;10.80;99.90
18043;DHT22;9146;48.074;11.968;2023-04-24T14:02:26;10.90;99.90
18043;DHT22;9146;48.074;11.968;2023-04-24T14:04:53;10.90;99.90
18043;DHT22;9146;48.074;11.968;2023-04-24T14:07:20;11.00;99.90
18043;DHT22;9146;48.074;11.968;2023-04-24T14:09:49;11.20;99.90
18043;DHT22;9146;48.074;11.968;2023-04-24T14:12:16;11.30;99.90
18043;DHT22;9146;48.074;11.968;2023-04-24T14:14:45;11.50;99.90
18043;DHT22;9146;48.074;11.968;2023-04-24T14:17:12;11.60;99.90
18043;DHT22;9146;48.074;11.968;2023-04-24T14:19:39;11.50;99.90
18043;DHT22;9146;48.074;11.968;2023-04-24T14:22:06;11.50;99.90
18043;DHT22;9146;48.074;11.968;2023-04-24T14:24:33;11.30;99.90
18043;DHT22;9146;48.074;11.968;2023-04-24T14:27:01;11.10;99.90
18043;DHT22;9146;48.074;11.968;2023-04-24T14:29:30;10.90;99.90
18043;DHT22;9146;48.074;11.968;2023-04-24T14:31:57;10.70;99.90
18043;DHT22;9146;48.074;11.968;2023-04-24T14:34:24;10.50;99.90
18043;DHT22;9146;48.074;11.968;2023-04-24T14:36:51;10.30;99.90
18043;DHT22;9146;48.074;11.968;2023-04-24T14:39:18;10.30;99.90
18043;DHT22;9146;48.074;11.968;2023-04-24T14:41:45;10.40;99.90
18043;DHT22;9146;48.074;11.968;2023-04-24T14:44:14;10.50;99.90
18043;DHT22;9146;48.074;11.968;2023-04-24T14:46:41;10.60;99.90
18043;DHT22;9146;48.074;11.968;2023-04-24T14:49:08;10.60;99.90
18043;DHT22;9146;48.074;11.968;2023-04-24T14:51:37;10.60;99.90
18043;DHT22;9146;48.074;11.968;2023-04-24T14:54:04;10.50;99.90
18043;DHT22;9146;48.074;11.968;2023-04-24T14:56:31;10.50;99.90
18043;DHT22;9146;48.074;11.968;2023-04-24T14:58:58;10.60;99.90
18043;DHT22;9146;48.074;11.968;2023-04-24T15:01:26;10.80;99.90
18043;DHT22;9146;48.074;11.968;2023-04-24T15:03:53;10.90;99.90
18043;DHT22;9146;48.074;11.968;2023-04-24T15:06:20;10.90;99.90
18043;DHT22;9146;48.074;11.968;2023-04-24T15:08:47;11.00;99.90
18043;DHT22;9146;48.074;11.968;2023-04-24T15:11:14;10.90;99.90
18043;DHT22;9146;48.074;11.968;2023-04-24T15:13:41;10.90;99.90
18043;DHT22;9146;48.074;11.968;2023-04-24T15:16:08;10.90;99.90
18043;DHT22;9146;48.074;11.968;2023-04-24T15:18:36;11.00;99.90
18043;DHT22;9146;48.074;11.968;2023-04-24T15:21:03;11.00;99.90
18043;DHT22;9146;48.074;11.968;2023-04-24T15:23:30;11.10;99.90
18043;DHT22;9146;48.074;11.968;2023-04-24T15:25:57;11.20;99.90
18043;DHT22;9146;48.074;11.968;2023-04-24T15:28:25;11.30;99.90
18043;DHT22;9146;48.074;11.968;2023-04-24T15:30:51;11.30;99.90
18043;DHT22;9146;48.074;11.968;2023-04-24T15:33:18;11.50;99.90
18043;DHT22;9146;48.074;11.968;2023-04-24T15:35:47;11.60;99.90
18043;DHT22;9146;48.074;11.968;2023-04-24T15:38:15;11.80;99.90
18043;DHT22;9146;48.074;11.968;2023-04-24T15:40:42;12.00;99.90